Erria Swan — 9HHJ9 — position and weather

sailwx.info

Track history (hours):
 
Tides and Currents Weather Stations Pressure Air Temp Water Temp Dewpoint Dewpoint Depression Visibility Wind Speed Wind Dir Waves Ship Positions

Erria Swan

Last reported at 2014-Sep-12 15:33 UTC. Time now 2014-Oct-25 13:34 UTC.
Position N 46°13' W 007°59'.
Warning: this ship's position is 42 days out of date.

Length 130 m; draft 6.3 m.

Type: Ship. MMSI: 256986000.

Date/timePositionNaut miles runAvg speedWind from/ knotsBaromVisibWave heightAir tempDewpointWater temp
2014-Sep-12 15:33N 46°13' W 007°59'11711.5
2014-Sep-12 05:23N 47°56' W 006°36'25010.9
2014-Sep-11 06:32N 50°17' W 001°21'1313.2
2014-Sep-11 05:34N 50°20' W 001°02'1515.0
2014-Sep-11 04:32N 50°24' W 000°39'1414.5
2014-Sep-11 03:33N 50°28' W 000°17'1513.8
2014-Sep-11 02:27N 50°32' E 000°06'1213.0
2014-Sep-11 01:33N 50°35' E 000°24'1211.7
2014-Sep-11 00:33N 50°40' E 000°41'1110.9
2014-Sep-10 23:33N 50°47' E 000°54'1110.6
2014-Sep-10 22:33N 50°53' E 001°08'1212.4
2014-Sep-10 21:34N 51°02' E 001°22'1615.6
2014-Sep-10 20:34N 51°11' E 001°41'1414.5
2014-Sep-10 19:33N 51°23' E 001°54'1312.9
2014-Sep-10 18:34N 51°33' E 002°07'1211.8
2014-Sep-10 17:33N 51°43' E 002°19'1110.9
2014-Sep-10 16:33N 51°51' E 002°30'11 9.8
2014-Sep-10 15:25N 52°02' E 002°36'8 9.8
2014-Sep-10 14:33N 52°10' E 002°37'1110.4
2014-Sep-10 13:32N 52°19' E 002°44'1111.6
2014-Sep-10 12:33N 52°29' E 002°53'8212.7
2014-Sep-10 06:07N 53°45' E 003°45'7910.4
2014-Sep-09 22:33N 53°57' E 005°58'1110.7
2014-Sep-09 21:33N 53°48' E 006°08'1010.0
2014-Sep-09 20:33N 53°40' E 006°17'9 9.0
2014-Sep-09 19:33N 53°37' E 006°31'8 8.2
2014-Sep-09 18:34N 53°32' E 006°43'1010.3
2014-Sep-09 17:34N 53°25' E 006°56'9 9.2
2014-Sep-09 16:34N 53°20' E 007°08'2 2.4
2014-Sep-09 15:33N 53°20' E 007°12'1 0.6
2014-Sep-09 14:32N 53°21' E 007°12'0 0.0
2014-Sep-09 13:29N 53°21' E 007°12'0 0.0
2014-Sep-09 12:29N 53°21' E 007°12'0 0.0
2014-Sep-09 11:29N 53°21' E 007°12'0 0.0
2014-Sep-09 10:32N 53°21' E 007°12'0 0.0
2014-Sep-09 09:32N 53°21' E 007°12'0 0.3
2014-Sep-09 08:33N 53°21' E 007°12'1 0.9
2014-Sep-09 07:33N 53°20' E 007°11'5 4.7
2014-Sep-09 06:33N 53°19' E 007°04'1413.5
2014-Sep-09 05:34N 53°30' E 006°49'1312.7
2014-Sep-09 04:34N 53°37' E 006°31'10 9.5
2014-Sep-09 03:33N 53°38' E 006°15'2 1.7
2014-Sep-09 02:33N 53°37' E 006°12'3 3.3
2014-Sep-09 01:33N 53°41' E 006°12'9 9.3
2014-Sep-09 00:33N 53°49' E 006°05'1110.8
2014-Sep-08 23:33N 53°59' E 005°57'4411.0
2014-Sep-08 19:32N 53°59' E 004°41'11310.9
2014-Sep-08 09:11N 52°16' E 003°23'710.9
2014-Sep-08 08:31N 52°10' E 003°30'1111.1
2014-Sep-08 07:33N 52°05' E 003°44'1010.2
2014-Sep-08 06:33N 52°01' E 003°60'1313.1
2014-Sep-08 05:33N 51°54' E 004°18'1 1.1
2014-Sep-08 04:31N 51°53' E 004°18'0 0.0
2014-Sep-08 03:31N 51°53' E 004°18'0 0.0
2014-Sep-08 02:31N 51°53' E 004°18'0 0.0
2014-Sep-08 01:25N 51°53' E 004°18'0 0.0
2014-Sep-08 00:31N 51°53' E 004°18'0 0.0
2014-Sep-07 23:31N 51°53' E 004°18'0 0.0
2014-Sep-07 21:31N 51°53' E 004°18'0 0.0
2014-Sep-07 20:28N 51°53' E 004°18'0 0.0
2014-Sep-07 19:25N 51°53' E 004°18'0 0.0
2014-Sep-07 18:25N 51°53' E 004°18'0 0.0
2014-Sep-07 17:31N 51°53' E 004°18'0 0.3
2014-Sep-07 16:33N 51°53' E 004°18'0 0.2
2014-Sep-07 15:33N 51°53' E 004°18'0 0.0
2014-Sep-07 14:33N 51°53' E 004°18'0 0.0
2014-Sep-07 13:30N 51°53' E 004°18'0 0.0
2014-Sep-07 12:33N 51°53' E 004°18'0 0.0
2014-Sep-07 11:33N 51°53' E 004°18'0 0.0
2014-Sep-07 10:33N 51°53' E 004°18'0 0.0
2014-Sep-07 09:33N 51°53' E 004°18'0 0.0
2014-Sep-07 08:33N 51°53' E 004°18'0 0.0
2014-Sep-07 07:33N 51°53' E 004°18'0 0.0
2014-Sep-07 06:33N 51°53' E 004°18'0 0.0
2014-Sep-07 05:30N 51°53' E 004°18'0 0.0
2014-Sep-07 04:33N 51°53' E 004°18'0 0.0
2014-Sep-07 03:33N 51°53' E 004°18'0 0.0
2014-Sep-07 02:33N 51°53' E 004°18'0 0.0
2014-Sep-07 01:33N 51°53' E 004°18'0 0.0
2014-Sep-07 00:33N 51°53' E 004°18'0 0.0
2014-Sep-06 23:24N 51°53' E 004°18'0 0.0
2014-Sep-06 22:33N 51°53' E 004°18'0 0.0
2014-Sep-06 21:30N 51°53' E 004°18'0 0.0
2014-Sep-06 20:33N 51°53' E 004°18'0 0.0
2014-Sep-06 19:33N 51°53' E 004°18'0 0.0
2014-Sep-06 18:33N 51°53' E 004°18'0 0.0
2014-Sep-06 17:33N 51°53' E 004°18'0 0.0
2014-Sep-06 16:33N 51°53' E 004°18'0 0.0
2014-Sep-06 15:33N 51°53' E 004°18'0 0.0
2014-Sep-06 14:33N 51°53' E 004°18'0 0.0
2014-Sep-06 13:30N 51°53' E 004°18'2 2.5
2014-Sep-06 12:33N 51°55' E 004°16'1111.2
2014-Sep-06 11:33N 52°00' E 003°60'1111.1
2014-Sep-06 10:33N 51°59' E 003°42'1917.7
2014-Sep-06 09:28N 51°53' E 003°12'6 5.2
2014-Sep-06 08:16N 51°51' E 003°02'1810.7
2014-Sep-06 06:33N 51°44' E 002°35'1110.4
2014-Sep-06 05:33N 51°36' E 002°24'1010.2
2014-Sep-06 04:33N 51°29' E 002°13'10 9.9
2014-Sep-06 03:33N 51°20' E 002°07'10 9.8
2014-Sep-06 02:33N 51°11' E 001°58'1110.6
2014-Sep-06 01:33N 51°05' E 001°44'1111.0
2014-Sep-06 00:33N 50°57' E 001°32'1211.6
2014-Sep-05 23:31N 50°47' E 001°23'1311.5
2014-Sep-05 22:22N 50°37' E 001°09'911.4
2014-Sep-05 21:33N 50°31' E 000°57'1311.8
2014-Sep-05 20:29N 50°28' E 000°38'1111.8
2014-Sep-05 19:33N 50°25' E 000°22'2612.8
2014-Sep-05 17:33N 50°18' W 000°17'3013.6
2014-Sep-05 15:23N 50°09' W 001°01'15411.0
2014-Sep-05 01:22N 49°08' W 004°40'2612.0
2014-Sep-04 23:14N 48°55' W 005°14'812.1
2014-Sep-04 22:32N 48°50' W 005°25'1111.5
2014-Sep-04 21:32N 48°43' W 005°38'1212.4
2014-Sep-04 20:33N 48°32' W 005°46'6412.1
2014-Sep-04 15:15N 47°36' W 006°33'  
Track history (hours):
 
Tides and Currents Weather Stations Pressure Air Temp Water Temp Dewpoint Dewpoint Depression Visibility Wind Speed Wind Dir Waves Ship Positions

Erria Swan

Last reported at 2014-Sep-12 15:33 UTC. Time now 2014-Oct-25 13:34 UTC.
Position N 46°13' W 007°59'.
Warning: this ship's position is 42 days out of date.

Length 130 m; draft 6.3 m.

Type: Ship. MMSI: 256986000.

Date/timePositionNaut miles runAvg speedWind from/ knotsBaromVisibWave heightAir tempDewpointWater temp
2014-Sep-12 15:33N 46°13' W 007°59'11711.5
2014-Sep-12 05:23N 47°56' W 006°36'25010.9
2014-Sep-11 06:32N 50°17' W 001°21'1313.2
2014-Sep-11 05:34N 50°20' W 001°02'1515.0
2014-Sep-11 04:32N 50°24' W 000°39'1414.5
2014-Sep-11 03:33N 50°28' W 000°17'1513.8
2014-Sep-11 02:27N 50°32' E 000°06'1213.0
2014-Sep-11 01:33N 50°35' E 000°24'1211.7
2014-Sep-11 00:33N 50°40' E 000°41'1110.9
2014-Sep-10 23:33N 50°47' E 000°54'1110.6
2014-Sep-10 22:33N 50°53' E 001°08'1212.4
2014-Sep-10 21:34N 51°02' E 001°22'1615.6
2014-Sep-10 20:34N 51°11' E 001°41'1414.5
2014-Sep-10 19:33N 51°23' E 001°54'1312.9
2014-Sep-10 18:34N 51°33' E 002°07'1211.8
2014-Sep-10 17:33N 51°43' E 002°19'1110.9
2014-Sep-10 16:33N 51°51' E 002°30'11 9.8
2014-Sep-10 15:25N 52°02' E 002°36'8 9.8
2014-Sep-10 14:33N 52°10' E 002°37'1110.4
2014-Sep-10 13:32N 52°19' E 002°44'1111.6
2014-Sep-10 12:33N 52°29' E 002°53'8212.7
2014-Sep-10 06:07N 53°45' E 003°45'7910.4
2014-Sep-09 22:33N 53°57' E 005°58'1110.7
2014-Sep-09 21:33N 53°48' E 006°08'1010.0
2014-Sep-09 20:33N 53°40' E 006°17'9 9.0
2014-Sep-09 19:33N 53°37' E 006°31'8 8.2
2014-Sep-09 18:34N 53°32' E 006°43'1010.3
2014-Sep-09 17:34N 53°25' E 006°56'9 9.2
2014-Sep-09 16:34N 53°20' E 007°08'2 2.4
2014-Sep-09 15:33N 53°20' E 007°12'1 0.6
2014-Sep-09 14:32N 53°21' E 007°12'0 0.0
2014-Sep-09 13:29N 53°21' E 007°12'0 0.0
2014-Sep-09 12:29N 53°21' E 007°12'0 0.0
2014-Sep-09 11:29N 53°21' E 007°12'0 0.0
2014-Sep-09 10:32N 53°21' E 007°12'0 0.0
2014-Sep-09 09:32N 53°21' E 007°12'0 0.3
2014-Sep-09 08:33N 53°21' E 007°12'1 0.9
2014-Sep-09 07:33N 53°20' E 007°11'5 4.7
2014-Sep-09 06:33N 53°19' E 007°04'1413.5
2014-Sep-09 05:34N 53°30' E 006°49'1312.7
2014-Sep-09 04:34N 53°37' E 006°31'10 9.5
2014-Sep-09 03:33N 53°38' E 006°15'2 1.7
2014-Sep-09 02:33N 53°37' E 006°12'3 3.3
2014-Sep-09 01:33N 53°41' E 006°12'9 9.3
2014-Sep-09 00:33N 53°49' E 006°05'1110.8
2014-Sep-08 23:33N 53°59' E 005°57'4411.0
2014-Sep-08 19:32N 53°59' E 004°41'11310.9
2014-Sep-08 09:11N 52°16' E 003°23'710.9
2014-Sep-08 08:31N 52°10' E 003°30'1111.1
2014-Sep-08 07:33N 52°05' E 003°44'1010.2
2014-Sep-08 06:33N 52°01' E 003°60'1313.1
2014-Sep-08 05:33N 51°54' E 004°18'1 1.1
2014-Sep-08 04:31N 51°53' E 004°18'0 0.0
2014-Sep-08 03:31N 51°53' E 004°18'0 0.0
2014-Sep-08 02:31N 51°53' E 004°18'0 0.0
2014-Sep-08 01:25N 51°53' E 004°18'0 0.0
2014-Sep-08 00:31N 51°53' E 004°18'0 0.0
2014-Sep-07 23:31N 51°53' E 004°18'0 0.0
2014-Sep-07 21:31N 51°53' E 004°18'0 0.0
2014-Sep-07 20:28N 51°53' E 004°18'0 0.0
2014-Sep-07 19:25N 51°53' E 004°18'0 0.0
2014-Sep-07 18:25N 51°53' E 004°18'0 0.0
2014-Sep-07 17:31N 51°53' E 004°18'0 0.3
2014-Sep-07 16:33N 51°53' E 004°18'0 0.2
2014-Sep-07 15:33N 51°53' E 004°18'0 0.0
2014-Sep-07 14:33N 51°53' E 004°18'0 0.0
2014-Sep-07 13:30N 51°53' E 004°18'0 0.0
2014-Sep-07 12:33N 51°53' E 004°18'0 0.0
2014-Sep-07 11:33N 51°53' E 004°18'0 0.0
2014-Sep-07 10:33N 51°53' E 004°18'0 0.0
2014-Sep-07 09:33N 51°53' E 004°18'0 0.0
2014-Sep-07 08:33N 51°53' E 004°18'0 0.0
2014-Sep-07 07:33N 51°53' E 004°18'0 0.0
2014-Sep-07 06:33N 51°53' E 004°18'0 0.0
2014-Sep-07 05:30N 51°53' E 004°18'0 0.0
2014-Sep-07 04:33N 51°53' E 004°18'0 0.0
2014-Sep-07 03:33N 51°53' E 004°18'0 0.0
2014-Sep-07 02:33N 51°53' E 004°18'0 0.0
2014-Sep-07 01:33N 51°53' E 004°18'0 0.0
2014-Sep-07 00:33N 51°53' E 004°18'0 0.0
2014-Sep-06 23:24N 51°53' E 004°18'0 0.0
2014-Sep-06 22:33N 51°53' E 004°18'0 0.0
2014-Sep-06 21:30N 51°53' E 004°18'0 0.0
2014-Sep-06 20:33N 51°53' E 004°18'0 0.0
2014-Sep-06 19:33N 51°53' E 004°18'0 0.0
2014-Sep-06 18:33N 51°53' E 004°18'0 0.0
2014-Sep-06 17:33N 51°53' E 004°18'0 0.0
2014-Sep-06 16:33N 51°53' E 004°18'0 0.0
2014-Sep-06 15:33N 51°53' E 004°18'0 0.0
2014-Sep-06 14:33N 51°53' E 004°18'0 0.0
2014-Sep-06 13:30N 51°53' E 004°18'2 2.5
2014-Sep-06 12:33N 51°55' E 004°16'1111.2
2014-Sep-06 11:33N 52°00' E 003°60'1111.1
2014-Sep-06 10:33N 51°59' E 003°42'1917.7
2014-Sep-06 09:28N 51°53' E 003°12'6 5.2
2014-Sep-06 08:16N 51°51' E 003°02'1810.7
2014-Sep-06 06:33N 51°44' E 002°35'1110.4
2014-Sep-06 05:33N 51°36' E 002°24'1010.2
2014-Sep-06 04:33N 51°29' E 002°13'10 9.9
2014-Sep-06 03:33N 51°20' E 002°07'10 9.8
2014-Sep-06 02:33N 51°11' E 001°58'1110.6
2014-Sep-06 01:33N 51°05' E 001°44'1111.0
2014-Sep-06 00:33N 50°57' E 001°32'1211.6
2014-Sep-05 23:31N 50°47' E 001°23'1311.5
2014-Sep-05 22:22N 50°37' E 001°09'911.4
2014-Sep-05 21:33N 50°31' E 000°57'1311.8
2014-Sep-05 20:29N 50°28' E 000°38'1111.8
2014-Sep-05 19:33N 50°25' E 000°22'2612.8
2014-Sep-05 17:33N 50°18' W 000°17'3013.6
2014-Sep-05 15:23N 50°09' W 001°01'15411.0
2014-Sep-05 01:22N 49°08' W 004°40'2612.0
2014-Sep-04 23:14N 48°55' W 005°14'812.1
2014-Sep-04 22:32N 48°50' W 005°25'1111.5
2014-Sep-04 21:32N 48°43' W 005°38'1212.4
2014-Sep-04 20:33N 48°32' W 005°46'6412.1
2014-Sep-04 15:15N 47°36' W 006°33'  

Dump ship's entire track history